Time;durP1;ratioP1;P1;durP2;ratioP2;P2;SDS_P1;SDS_P2;PMS_P1;PMS_P2;Temp;Humidity;BMP_temperature;BMP_pressure;BME280_temperature;BME280_humidity;BME280_pressure;Samples;Min_cycle;Max_cycle;Signal;HPM_P1;HPM_P2
2021/12/10 00:00:36;;;;;;;37.13;8.05;;;9.90;97.00;;;;;;5040379;28;20025;-80
2021/12/10 00:03:06;;;;;;;32.65;6.47;;;9.90;97.20;;;;;;5040472;28;20037;-80
2021/12/10 00:05:36;;;;;;;29.95;6.65;;;9.90;97.40;;;;;;5039945;28;20029;-79
2021/12/10 00:08:03;;;;;;;36.17;7.47;;;9.80;97.40;;;;;;5040182;28;20033;-79
2021/12/10 00:10:34;;;;;;;41.33;7.25;;;9.80;97.40;;;;;;5039939;28;20010;-79
2021/12/10 00:13:01;;;;;;;33.67;7.72;;;9.80;97.40;;;;;;5028795;28;20540;-79
2021/12/10 00:15:30;;;;;;;42.63;7.63;;;9.80;97.40;;;;;;5038135;28;20026;-79
2021/12/10 00:17:58;;;;;;;25.85;4.97;;;9.80;97.50;;;;;;5040045;28;20502;-79
2021/12/10 00:20:28;;;;;;;24.42;5.13;;;9.80;96.80;;;;;;5034572;28;20036;-79
2021/12/10 00:23:02;;;;;;;24.63;5.43;;;9.80;96.30;;;;;;5032772;28;20029;-79
2021/12/10 00:25:35;;;;;;;14.95;3.35;;;9.70;96.10;;;;;;5026930;28;20076;-79
2021/12/10 00:28:16;;;;;;;30.38;4.90;;;9.70;95.60;;;;;;5039717;28;20036;-79
2021/12/10 00:31:03;;;;;;;22.92;3.22;;;9.60;95.30;;;;;;5039245;28;20024;-79
2021/12/10 00:33:35;;;;;;;22.52;3.28;;;9.60;95.40;;;;;;5039694;28;20032;-79
2021/12/10 00:36:01;;;;;;;14.77;3.63;;;9.50;95.60;;;;;;5039523;28;20014;-79
2021/12/10 00:38:27;;;;;;;25.05;4.00;;;9.40;95.80;;;;;;5039675;28;20586;-78
2021/12/10 00:40:53;;;;;;;23.15;3.88;;;9.30;95.90;;;;;;5039557;28;20014;-79
2021/12/10 00:43:19;;;;;;;26.92;4.50;;;9.30;96.20;;;;;;5039863;28;20437;-78
2021/12/10 00:45:46;;;;;;;33.15;4.28;;;9.20;96.40;;;;;;5039361;28;20025;-78
2021/12/10 00:48:12;;;;;;;22.35;3.63;;;9.20;96.70;;;;;;5039528;28;20025;-79
2021/12/10 00:50:47;;;;;;;23.63;6.00;;;9.20;96.80;;;;;;5039116;28;20075;-79
2021/12/10 00:53:14;;;;;;;28.98;4.38;;;9.20;96.60;;;;;;5039697;28;20022;-79
2021/12/10 00:55:40;;;;;;;30.02;6.15;;;9.10;96.60;;;;;;5039229;28;20075;-79
2021/12/10 00:58:06;;;;;;;25.20;4.18;;;9.10;96.70;;;;;;5039321;28;20033;-79
2021/12/10 01:00:46;;;;;;;25.67;4.40;;;9.00;96.70;;;;;;5039206;28;20077;-80
2021/12/10 01:03:14;;;;;;;30.45;4.53;;;9.00;96.80;;;;;;5039352;28;20468;-79
2021/12/10 01:05:43;;;;;;;23.67;5.50;;;8.90;96.90;;;;;;5038819;28;20026;-79
2021/12/10 01:08:09;;;;;;;28.08;4.97;;;8.90;97.00;;;;;;5038578;28;20060;-79
2021/12/10 01:10:43;;;;;;;38.25;5.97;;;8.90;97.10;;;;;;5038835;28;20056;-79
2021/12/10 01:13:15;;;;;;;32.75;5.15;;;8.80;97.10;;;;;;5026468;28;20026;-79
2021/12/10 01:16:12;;;;;;;36.58;5.57;;;8.80;97.20;;;;;;5026103;28;20029;-79
2021/12/10 01:24:06;;;;;;;44.45;5.50;;;8.80;97.10;;;;;;5038861;28;20496;-79
2021/12/10 01:29:15;;;;;;;28.48;6.85;;;8.80;97.10;;;;;;5038943;28;20095;-79
2021/12/10 01:31:42;;;;;;;29.95;3.88;;;8.80;97.20;;;;;;5037497;28;20034;-79
2021/12/10 01:34:09;;;;;;;32.58;5.15;;;8.90;97.30;;;;;;5038304;28;20029;-79
2021/12/10 01:36:36;;;;;;;27.42;5.05;;;8.90;97.10;;;;;;5038508;28;20017;-79
2021/12/10 01:39:07;;;;;;;37.67;4.93;;;8.90;97.20;;;;;;5038374;28;20053;-79
2021/12/10 01:41:37;;;;;;;25.95;6.05;;;8.90;97.10;;;;;;5037538;28;20033;-79
2021/12/10 01:44:14;;;;;;;19.08;3.20;;;8.90;96.70;;;;;;5037325;28;20025;-79
2021/12/10 01:46:41;;;;;;;21.60;5.05;;;8.80;96.50;;;;;;5037905;28;20036;-78
2021/12/10 01:49:09;;;;;;;23.35;3.50;;;8.80;96.20;;;;;;5037931;28;20532;-79
2021/12/10 01:51:37;;;;;;;21.73;3.50;;;8.70;95.70;;;;;;5038573;28;20377;-79
2021/12/10 01:54:11;;;;;;;26.40;3.78;;;8.70;95.30;;;;;;5037928;28;20025;-79
2021/12/10 01:56:38;;;;;;;24.45;3.88;;;8.60;95.00;;;;;;5038498;28;20370;-79
2021/12/10 01:59:07;;;;;;;23.00;4.05;;;8.60;94.50;;;;;;5038041;28;20503;-78
2021/12/10 02:01:40;;;;;;;25.48;3.47;;;8.60;94.20;;;;;;5038185;28;20049;-79
2021/12/10 02:04:09;;;;;;;21.92;3.67;;;8.50;94.10;;;;;;5037876;28;20033;-79
2021/12/10 02:06:35;;;;;;;27.95;4.03;;;8.40;94.00;;;;;;5037889;28;20017;-78
2021/12/10 02:09:02;;;;;;;19.98;3.35;;;8.40;94.00;;;;;;5038079;28;20531;-79
2021/12/10 02:11:28;;;;;;;22.95;5.63;;;8.40;93.80;;;;;;5037801;28;20059;-79
2021/12/10 02:13:54;;;;;;;25.50;3.97;;;8.30;93.90;;;;;;5024803;28;20024;-79
2021/12/10 02:16:20;;;;;;;32.88;6.03;;;8.30;93.90;;;;;;5037905;28;20021;-79
2021/12/10 02:18:46;;;;;;;21.77;3.17;;;8.20;94.00;;;;;;5035172;28;20519;-79
2021/12/10 02:21:12;;;;;;;24.65;3.58;;;8.20;94.10;;;;;;5024926;28;20025;-79
2021/12/10 02:23:43;;;;;;;21.60;3.88;;;8.20;94.10;;;;;;5035627;28;20035;-79
2021/12/10 02:26:12;;;;;;;23.37;5.10;;;8.10;94.20;;;;;;5036729;28;20022;-79
2021/12/10 02:28:39;;;;;;;29.85;4.65;;;8.10;94.20;;;;;;5024998;28;20036;-78
2021/12/10 02:31:07;;;;;;;13.27;2.83;;;8.10;94.30;;;;;;5037827;28;20022;-79
2021/12/10 02:33:34;;;;;;;21.73;3.33;;;8.00;94.30;;;;;;5037611;28;20075;-79
2021/12/10 02:36:01;;;;;;;32.83;4.90;;;8.10;94.10;;;;;;5037279;28;20025;-79
2021/12/10 02:38:27;;;;;;;20.48;3.25;;;8.00;94.10;;;;;;5036530;28;20076;-79
2021/12/10 02:40:54;;;;;;;26.55;3.15;;;8.00;94.30;;;;;;5037347;28;20029;-79
2021/12/10 02:43:22;;;;;;;19.13;3.20;;;8.00;94.20;;;;;;5036756;28;20025;-80
2021/12/10 02:45:54;;;;;;;16.60;3.55;;;8.00;93.80;;;;;;5035821;28;20881;-79
2021/12/10 02:48:21;;;;;;;22.13;5.17;;;8.00;93.80;;;;;;5037432;28;20033;-80
2021/12/10 02:50:47;;;;;;;17.88;3.28;;;8.10;93.80;;;;;;5037057;28;20272;-79
2021/12/10 02:53:16;;;;;;;17.48;2.88;;;8.20;93.70;;;;;;5037342;28;20033;-79
2021/12/10 02:55:43;;;;;;;24.58;3.33;;;8.20;93.20;;;;;;5037227;28;20018;-79
2021/12/10 02:58:12;;;;;;;13.63;3.72;;;8.20;93.30;;;;;;5037245;28;20061;-79
2021/12/10 03:00:47;;;;;;;14.75;3.35;;;8.20;93.00;;;;;;5037210;28;20388;-78
2021/12/10 03:03:13;;;;;;;11.77;2.67;;;8.20;92.80;;;;;;5037325;28;20396;-78
2021/12/10 03:05:39;;;;;;;13.85;3.03;;;8.20;92.40;;;;;;5036689;28;20489;-78
2021/12/10 03:08:05;;;;;;;16.25;3.75;;;8.20;92.40;;;;;;5037107;28;20099;-78
2021/12/10 03:10:33;;;;;;;21.08;2.45;;;8.20;92.20;;;;;;5036878;28;20017;-78
2021/12/10 03:13:00;;;;;;;7.85;2.83;;;8.10;92.10;;;;;;5025893;28;20022;-79
2021/12/10 03:15:28;;;;;;;16.48;2.70;;;8.10;92.40;;;;;;5034985;28;20109;-79
2021/12/10 03:17:55;;;;;;;17.90;2.85;;;8.10;92.50;;;;;;5035818;28;20031;-79
2021/12/10 03:20:25;;;;;;;12.13;2.03;;;8.00;92.60;;;;;;5032056;28;20481;-79
2021/12/10 03:22:51;;;;;;;15.98;2.28;;;7.90;92.80;;;;;;5029728;28;20037;-79
2021/12/10 03:25:18;;;;;;;11.30;2.03;;;7.90;92.90;;;;;;5036859;28;20029;-79
2021/12/10 03:27:44;;;;;;;11.07;2.10;;;7.80;92.80;;;;;;5037117;28;20021;-79
2021/12/10 03:30:16;;;;;;;14.75;2.10;;;7.80;92.90;;;;;;5038596;28;20018;-78
2021/12/10 03:32:42;;;;;;;22.65;2.50;;;7.80;92.80;;;;;;5040985;28;20040;-79
2021/12/10 03:35:14;;;;;;;11.90;2.13;;;7.70;93.00;;;;;;5039392;28;20021;-79
2021/12/10 03:37:42;;;;;;;16.38;3.05;;;7.60;93.10;;;;;;5040825;28;20025;-79
2021/12/10 03:40:11;;;;;;;13.38;2.20;;;7.60;93.00;;;;;;5040553;28;20042;-79
2021/12/10 03:42:38;;;;;;;16.60;2.85;;;7.60;93.00;;;;;;5040615;28;20018;-78
2021/12/10 03:45:07;;;;;;;23.15;2.80;;;7.60;92.80;;;;;;5040592;28;20048;-79
2021/12/10 03:47:33;;;;;;;13.00;3.13;;;7.60;92.90;;;;;;5040745;28;20053;-79
2021/12/10 03:49:59;;;;;;;8.45;1.83;;;7.50;93.00;;;;;;5040599;28;20021;-79
2021/12/10 03:52:25;;;;;;;10.98;2.13;;;7.50;93.00;;;;;;5040393;28;20021;-78
2021/12/10 03:54:51;;;;;;;14.90;2.80;;;7.50;93.30;;;;;;5041053;28;20057;-79
2021/12/10 03:57:18;;;;;;;13.68;1.90;;;7.50;93.40;;;;;;5039159;28;20396;-79
2021/12/10 03:59:44;;;;;;;12.77;1.90;;;7.50;93.50;;;;;;5040715;28;20420;-78
2021/12/10 04:02:10;;;;;;;11.60;2.20;;;7.50;93.50;;;;;;5040234;28;20025;-79
2021/12/10 04:04:44;;;;;;;16.92;2.50;;;7.50;93.40;;;;;;5040580;28;20388;-79
2021/12/10 04:07:18;;;;;;;12.00;2.15;;;7.50;93.20;;;;;;5040253;28;20095;-78
2021/12/10 04:09:44;;;;;;;10.57;2.33;;;7.60;93.00;;;;;;5039003;28;20384;-79
2021/12/10 04:12:11;;;;;;;12.18;2.85;;;7.50;93.00;;;;;;5035499;28;20076;-80
2021/12/10 04:14:38;;;;;;;11.80;2.58;;;7.50;93.00;;;;;;5031536;28;20036;-79
2021/12/10 04:17:05;;;;;;;21.85;3.85;;;7.40;93.00;;;;;;5040018;28;20072;-78
2021/12/10 04:19:33;;;;;;;13.73;2.63;;;7.50;92.80;;;;;;5038559;28;20112;-81
2021/12/10 04:22:00;;;;;;;21.58;3.72;;;7.40;92.90;;;;;;5026030;28;20030;-80
2021/12/10 04:24:31;;;;;;;20.27;2.83;;;7.40;93.00;;;;;;5038608;28;20440;-81
2021/12/10 04:26:59;;;;;;;16.98;2.58;;;7.40;92.90;;;;;;5038945;28;20021;-80
2021/12/10 04:29:25;;;;;;;14.77;3.22;;;7.40;92.90;;;;;;5039895;28;20036;-80
2021/12/10 04:31:54;;;;;;;15.82;3.45;;;7.40;92.90;;;;;;5039949;28;20026;-82
2021/12/10 04:34:21;;;;;;;15.75;2.35;;;7.40;93.10;;;;;;5038347;28;20026;-81
2021/12/10 04:36:49;;;;;;;16.77;2.50;;;7.40;93.10;;;;;;5040028;28;20018;-80
2021/12/10 04:39:15;;;;;;;13.45;2.58;;;7.30;92.60;;;;;;5039404;28;20064;-80
2021/12/10 04:41:41;;;;;;;12.48;2.33;;;7.30;92.60;;;;;;5038824;28;20113;-81
2021/12/10 04:44:09;;;;;;;15.57;2.92;;;7.30;92.60;;;;;;5039474;28;20081;-81
2021/12/10 04:46:35;;;;;;;17.15;3.92;;;7.20;92.60;;;;;;5039346;28;20399;-80
2021/12/10 04:49:05;;;;;;;14.18;2.50;;;7.20;92.50;;;;;;5039276;28;20077;-80
2021/12/10 04:51:39;;;;;;;16.02;2.45;;;7.20;92.40;;;;;;5039964;28;20072;-80
2021/12/10 04:54:07;;;;;;;13.88;2.40;;;7.20;92.50;;;;;;5039282;28;20026;-81
2021/12/10 04:56:33;;;;;;;14.25;2.90;;;7.20;92.60;;;;;;5039599;28;20104;-82
2021/12/10 04:59:00;;;;;;;15.98;3.97;;;7.20;92.50;;;;;;5039306;28;20053;-81
2021/12/10 05:01:28;;;;;;;18.65;3.67;;;7.20;92.30;;;;;;5039545;28;20136;-81
2021/12/10 05:03:54;;;;;;;20.35;3.33;;;7.20;92.40;;;;;;5038977;28;20480;-81
2021/12/10 05:06:20;;;;;;;20.23;3.35;;;7.20;92.50;;;;;;5037921;28;20021;-80
2021/12/10 05:08:46;;;;;;;16.15;4.18;;;7.20;92.60;;;;;;5038876;28;20030;-79
2021/12/10 05:11:12;;;;;;;15.05;2.72;;;7.10;92.70;;;;;;5035921;28;20076;-80
2021/12/10 05:13:43;;;;;;;18.33;2.85;;;7.10;92.90;;;;;;5023675;28;20021;-80
2021/12/10 05:16:10;;;;;;;18.23;3.90;;;7.10;92.70;;;;;;5037736;28;20440;-80
2021/12/10 05:18:39;;;;;;;12.88;2.35;;;7.10;92.70;;;;;;5025353;28;20026;-80
2021/12/10 05:21:09;;;;;;;21.42;3.72;;;7.10;92.80;;;;;;5037592;28;20056;-80
2021/12/10 05:23:35;;;;;;;14.75;3.30;;;7.00;92.90;;;;;;5037518;28;20026;-79
2021/12/10 05:26:03;;;;;;;13.88;2.60;;;7.00;92.90;;;;;;5037476;28;20022;-80
2021/12/10 05:28:29;;;;;;;14.15;3.00;;;7.00;92.70;;;;;;5038594;28;20033;-80
2021/12/10 05:30:56;;;;;;;17.60;2.55;;;7.00;92.40;;;;;;5038941;28;20048;-79
2021/12/10 05:33:24;;;;;;;17.05;2.17;;;7.00;92.40;;;;;;5038570;28;20028;-79
2021/12/10 05:35:51;;;;;;;12.57;2.50;;;7.00;91.80;;;;;;5038382;28;20021;-78
2021/12/10 05:38:20;;;;;;;14.68;3.17;;;7.00;91.60;;;;;;5038619;28;20035;-79
2021/12/10 05:40:48;;;;;;;14.45;2.95;;;7.00;91.20;;;;;;5038401;28;20038;-78
2021/12/10 05:43:14;;;;;;;12.40;2.58;;;7.00;91.30;;;;;;5037627;28;20033;-74
2021/12/10 05:45:41;;;;;;;9.02;2.00;;;7.00;91.30;;;;;;5038157;28;20026;-74
2021/12/10 05:48:07;;;;;;;11.68;2.75;;;7.00;91.10;;;;;;5038795;28;20090;-86
2021/12/10 05:50:34;;;;;;;13.82;1.98;;;7.00;90.90;;;;;;5037960;28;20503;-73
2021/12/10 05:53:00;;;;;;;10.80;1.98;;;7.00;91.00;;;;;;5038502;28;20022;-72
2021/12/10 05:55:27;;;;;;;14.13;2.80;;;7.00;91.10;;;;;;5037977;28;20033;-72
2021/12/10 05:57:53;;;;;;;13.50;3.28;;;7.00;91.10;;;;;;5038223;28;20555;-77
2021/12/10 06:00:28;;;;;;;14.18;2.78;;;6.90;91.10;;;;;;5038035;28;20550;-74
2021/12/10 06:02:53;;;;;;;10.50;2.00;;;6.90;91.00;;;;;;5038354;28;20040;-75
2021/12/10 06:05:20;;;;;;;8.27;1.60;;;6.90;90.90;;;;;;5037729;28;20029;-74
2021/12/10 06:07:47;;;;;;;10.30;2.35;;;6.90;90.70;;;;;;5038184;28;20027;-77
2021/12/10 06:10:14;;;;;;;13.27;2.13;;;7.10;90.60;;;;;;5036389;28;20026;-76
2021/12/10 06:12:42;;;;;;;11.07;1.70;;;7.10;91.10;;;;;;5029410;28;20038;-75
2021/12/10 06:15:09;;;;;;;5.57;1.83;;;7.20;91.30;;;;;;5033561;28;20500;-78
2021/12/10 06:17:35;;;;;;;5.97;1.70;;;7.20;91.30;;;;;;5038158;28;20017;-78
2021/12/10 06:20:05;;;;;;;10.68;1.63;;;7.20;91.20;;;;;;5035313;28;20080;-79
2021/12/10 06:22:30;;;;;;;8.23;1.48;;;7.10;91.40;;;;;;5026684;28;20026;-79
2021/12/10 06:24:56;;;;;;;6.18;1.88;;;7.10;91.30;;;;;;5037521;28;20032;-77
2021/12/10 06:27:22;;;;;;;5.97;1.20;;;7.00;91.30;;;;;;5037866;28;20115;-74
2021/12/10 06:29:48;;;;;;;7.40;1.50;;;6.90;91.30;;;;;;5037578;28;20076;-73
2021/12/10 06:32:14;;;;;;;9.90;2.38;;;6.90;91.50;;;;;;5037668;28;20026;-73
2021/12/10 06:34:40;;;;;;;5.60;1.45;;;6.80;91.60;;;;;;5037224;28;20014;-74
2021/12/10 06:37:06;;;;;;;8.40;1.65;;;6.70;91.70;;;;;;5037995;28;20021;-74
2021/12/10 06:39:32;;;;;;;3.70;1.48;;;6.60;91.60;;;;;;5037095;28;20053;-74
2021/12/10 06:41:58;;;;;;;10.95;2.00;;;6.60;91.40;;;;;;5037556;28;20115;-74
2021/12/10 06:44:24;;;;;;;5.03;1.33;;;6.60;91.10;;;;;;5035870;28;20025;-74
2021/12/10 06:46:51;;;;;;;5.82;1.60;;;6.50;90.90;;;;;;5037589;28;20029;-74
2021/12/10 06:49:18;;;;;;;7.93;1.60;;;6.50;91.00;;;;;;5037006;28;20156;-74
2021/12/10 06:51:45;;;;;;;6.80;1.33;;;6.50;91.10;;;;;;5037520;28;20476;-74
2021/12/10 06:54:11;;;;;;;8.52;1.45;;;6.50;91.40;;;;;;5037112;28;20033;-77
2021/12/10 06:56:37;;;;;;;7.60;2.08;;;6.50;91.50;;;;;;5037050;28;20110;-76
2021/12/10 06:59:06;;;;;;;9.48;2.30;;;6.50;91.60;;;;;;5036402;28;20029;-75
2021/12/10 07:01:36;;;;;;;10.05;2.17;;;6.40;91.90;;;;;;5035962;28;20085;-75
2021/12/10 07:04:04;;;;;;;10.18;2.20;;;6.50;92.00;;;;;;5035317;28;20021;-75
2021/12/10 07:06:31;;;;;;;9.18;2.45;;;6.50;92.10;;;;;;5035857;28;20036;-75
2021/12/10 07:08:59;;;;;;;12.93;2.13;;;6.50;92.20;;;;;;5037203;28;20017;-75
2021/12/10 07:11:26;;;;;;;9.07;2.00;;;6.50;92.20;;;;;;5037211;28;20018;-77
2021/12/10 07:13:55;;;;;;;13.90;3.95;;;6.60;92.40;;;;;;5024055;28;20433;-77
2021/12/10 07:16:24;;;;;;;12.00;2.38;;;6.60;92.40;;;;;;5037195;28;20040;-76
2021/12/10 07:18:52;;;;;;;12.48;2.30;;;6.60;92.30;;;;;;5036677;28;20014;-75
2021/12/10 07:21:18;;;;;;;7.95;2.00;;;6.70;92.30;;;;;;5024840;28;20052;-76
2021/12/10 07:23:44;;;;;;;7.68;1.85;;;6.70;92.40;;;;;;5036838;28;20030;-75
2021/12/10 07:26:12;;;;;;;12.00;2.15;;;6.70;92.30;;;;;;5035826;28;20030;-76
2021/12/10 07:28:38;;;;;;;5.53;1.60;;;6.70;92.20;;;;;;5024196;28;20033;-76
2021/12/10 07:31:06;;;;;;;10.32;2.38;;;6.70;92.10;;;;;;5037096;28;20495;-75
2021/12/10 07:33:32;;;;;;;9.88;1.73;;;6.70;92.10;;;;;;5036753;28;20022;-76
2021/12/10 07:35:58;;;;;;;9.43;1.75;;;6.60;92.10;;;;;;5037056;28;20112;-76
2021/12/10 07:38:24;;;;;;;14.23;3.33;;;6.60;91.80;;;;;;5037077;28;20389;-76
2021/12/10 07:40:51;;;;;;;7.68;1.30;;;6.60;91.70;;;;;;5035297;28;20047;-76
2021/12/10 07:43:17;;;;;;;10.38;1.70;;;6.60;91.10;;;;;;5037192;28;20033;-77
2021/12/10 07:45:46;;;;;;;8.00;1.48;;;6.60;90.70;;;;;;5036735;28;20510;-76
2021/12/10 07:48:17;;;;;;;5.80;1.60;;;6.60;90.40;;;;;;5036928;28;20112;-76
2021/12/10 07:51:15;;;;;;;5.45;1.48;;;6.60;90.40;;;;;;5036803;28;21491;-76
2021/12/10 07:53:43;;;;;;;11.88;1.95;;;6.60;90.50;;;;;;5026817;28;20033;-76
2021/12/10 07:56:11;;;;;;;7.80;1.80;;;6.50;90.70;;;;;;5036954;28;20384;-76
2021/12/10 07:58:40;;;;;;;11.80;3.05;;;6.50;90.90;;;;;;5035430;28;20025;-76
2021/12/10 08:01:11;;;;;;;12.50;2.33;;;6.50;91.10;;;;;;5036802;28;20029;-76
2021/12/10 08:03:37;;;;;;;10.20;1.73;;;6.50;91.70;;;;;;5036420;28;20049;-76
2021/12/10 08:06:04;;;;;;;13.52;3.85;;;6.50;91.70;;;;;;5036757;28;20021;-76
2021/12/10 08:08:30;;;;;;;9.75;3.17;;;6.50;91.80;;;;;;5036524;28;20072;-76
2021/12/10 08:10:56;;;;;;;9.52;1.90;;;6.50;91.80;;;;;;5036604;28;20022;-77
2021/12/10 08:13:22;;;;;;;11.90;2.03;;;6.50;91.90;;;;;;5023444;28;20033;-76
2021/12/10 08:15:50;;;;;;;8.30;1.88;;;6.50;92.00;;;;;;5036730;28;20014;-76
2021/12/10 08:18:16;;;;;;;10.30;2.47;;;6.50;92.10;;;;;;5026320;28;20187;-76
2021/12/10 08:20:42;;;;;;;8.15;2.00;;;6.50;92.20;;;;;;5039957;28;20025;-76
2021/12/10 08:23:08;;;;;;;12.10;2.30;;;6.60;92.30;;;;;;5039934;28;20026;-77
2021/12/10 08:25:35;;;;;;;9.70;2.40;;;6.60;92.10;;;;;;5040172;28;20047;-76
2021/12/10 08:28:02;;;;;;;12.85;2.53;;;6.70;92.00;;;;;;5039778;28;20033;-77
2021/12/10 08:30:29;;;;;;;7.95;2.33;;;6.80;91.80;;;;;;5040043;28;20533;-75
2021/12/10 08:32:57;;;;;;;14.73;3.22;;;6.80;91.70;;;;;;5038359;28;20048;-76
2021/12/10 08:35:27;;;;;;;10.40;2.13;;;6.80;91.70;;;;;;5039616;28;20028;-75
2021/12/10 08:37:54;;;;;;;9.45;2.00;;;6.90;91.60;;;;;;5039927;28;20029;-75
2021/12/10 08:40:24;;;;;;;13.52;3.97;;;6.90;91.70;;;;;;5039426;28;20041;-76
2021/12/10 08:42:51;;;;;;;7.93;1.90;;;7.00;91.70;;;;;;5039513;28;20079;-76
2021/12/10 08:45:19;;;;;;;9.68;1.80;;;7.00;91.70;;;;;;5039384;28;20480;-76
2021/12/10 08:47:46;;;;;;;11.27;2.67;;;7.00;91.70;;;;;;5039355;28;20025;-77
2021/12/10 08:50:12;;;;;;;10.18;1.80;;;7.00;92.20;;;;;;5039292;28;20025;-77
2021/12/10 08:52:38;;;;;;;9.50;1.98;;;7.00;92.50;;;;;;5039353;28;20485;-77
2021/12/10 08:55:05;;;;;;;12.07;2.10;;;6.90;92.50;;;;;;5038057;28;20030;-77
2021/12/10 08:57:32;;;;;;;6.22;1.77;;;6.90;92.70;;;;;;5039315;28;20029;-77
2021/12/10 08:59:59;;;;;;;9.68;1.67;;;6.90;92.40;;;;;;5039464;28;20021;-77
2021/12/10 09:02:24;;;;;;;8.02;1.73;;;6.90;92.20;;;;;;5039265;28;20029;-76
2021/12/10 09:04:50;;;;;;;9.10;2.50;;;6.90;92.00;;;;;;5038945;28;20053;-76
2021/12/10 09:07:18;;;;;;;7.03;1.50;;;6.80;91.90;;;;;;5039470;28;20029;-76
2021/12/10 09:09:45;;;;;;;7.82;1.55;;;6.90;91.60;;;;;;5038004;28;20109;-76
2021/12/10 09:12:23;;;;;;;7.93;2.75;;;6.90;91.10;;;;;;5033107;28;20109;-76
2021/12/10 09:14:52;;;;;;;6.03;2.22;;;6.90;91.10;;;;;;5032312;28;20018;-76
2021/12/10 09:17:23;;;;;;;9.70;2.30;;;6.90;91.10;;;;;;5026248;28;20021;-76
2021/12/10 09:19:53;;;;;;;8.35;1.70;;;6.90;90.80;;;;;;5038349;28;20032;-77
2021/12/10 09:22:21;;;;;;;9.98;2.10;;;6.90;91.00;;;;;;5026208;28;20029;-76
2021/12/10 09:24:47;;;;;;;10.98;2.08;;;7.00;91.00;;;;;;5037403;28;20033;-77
2021/12/10 09:27:14;;;;;;;7.13;2.15;;;7.10;90.90;;;;;;5038626;28;20053;-76
2021/12/10 09:29:45;;;;;;;7.78;2.30;;;7.30;90.60;;;;;;5038659;28;20443;-76
2021/12/10 09:32:15;;;;;;;11.93;2.70;;;7.40;90.70;;;;;;5038770;28;20025;-76
2021/12/10 09:34:41;;;;;;;11.27;2.90;;;7.60;90.80;;;;;;5038693;28;20013;-76
2021/12/10 09:37:09;;;;;;;15.45;3.78;;;7.80;90.20;;;;;;5038674;28;20037;-75
2021/12/10 09:39:36;;;;;;;16.20;3.97;;;8.00;90.00;;;;;;5038317;28;20046;-75
2021/12/10 09:42:03;;;;;;;26.60;6.40;;;8.20;88.70;;;;;;5038467;28;20496;-75
2021/12/10 09:44:29;;;;;;;12.48;2.95;;;8.30;87.90;;;;;;5038151;28;20032;-76
2021/12/10 09:46:56;;;;;;;13.73;2.42;;;8.30;87.80;;;;;;5038662;28;20455;-76
2021/12/10 09:49:24;;;;;;;14.50;3.47;;;8.40;86.10;;;;;;5038023;28;20100;-75
2021/12/10 09:52:01;;;;;;;13.45;2.45;;;8.40;85.90;;;;;;5038619;28;20105;-75
2021/12/10 09:54:30;;;;;;;11.23;2.53;;;8.50;85.80;;;;;;5025295;28;20053;-75
2021/12/10 09:57:11;;;;;;;14.80;3.00;;;8.70;86.60;;;;;;5038242;28;20040;-74
2021/12/10 09:59:40;;;;;;;15.70;2.92;;;8.90;85.40;;;;;;5038513;28;20029;-75
2021/12/10 10:02:08;;;;;;;11.00;2.42;;;9.00;85.30;;;;;;5037986;28;20036;-75
2021/12/10 10:04:35;;;;;;;11.98;2.30;;;9.00;84.80;;;;;;5038009;28;20431;-75
2021/12/10 10:07:12;;;;;;;10.68;2.40;;;9.00;85.00;;;;;;5038262;28;20029;-75
2021/12/10 10:09:38;;;;;;;9.00;2.85;;;9.10;86.00;;;;;;5038076;28;20049;-74
2021/12/10 10:12:08;;;;;;;16.50;2.78;;;9.40;84.10;;;;;;5034123;28;20584;-75
2021/12/10 10:14:35;;;;;;;14.32;3.42;;;9.60;83.60;;;;;;5028987;28;20104;-74
2021/12/10 10:17:01;;;;;;;11.27;3.05;;;9.70;84.20;;;;;;5037814;28;20052;-74
2021/12/10 10:19:28;;;;;;;12.68;2.78;;;10.10;84.30;;;;;;5037617;28;20040;-74
2021/12/10 10:21:56;;;;;;;13.73;3.10;;;10.70;80.00;;;;;;5025141;28;20035;-75
2021/12/10 10:24:24;;;;;;;21.48;7.78;;;11.00;78.90;;;;;;5037754;28;20021;-75
2021/12/10 10:26:59;;;;;;;24.83;8.38;;;11.10;80.00;;;;;;5037696;28;20041;-75
2021/12/10 10:29:32;;;;;;;16.30;4.15;;;11.50;76.90;;;;;;5037538;28;20030;-74
2021/12/10 10:32:08;;;;;;;9.82;3.75;;;11.50;75.10;;;;;;5037820;28;20027;-74
2021/12/10 10:34:35;;;;;;;18.52;5.57;;;11.60;77.00;;;;;;5037452;28;20026;-75
2021/12/10 10:37:00;;;;;;;16.10;3.83;;;11.60;78.40;;;;;;5037838;28;20021;-74
2021/12/10 10:39:34;;;;;;;12.30;2.95;;;11.60;76.90;;;;;;5036479;28;20057;-73
2021/12/10 10:42:03;;;;;;;14.23;3.17;;;11.80;75.50;;;;;;5037576;28;20365;-73
2021/12/10 10:44:29;;;;;;;15.30;3.42;;;12.10;73.70;;;;;;5037195;28;20037;-73
2021/12/10 10:46:57;;;;;;;11.07;3.75;;;12.40;74.50;;;;;;5037578;28;20035;-75
2021/12/10 10:49:48;;;;;;;12.35;2.60;;;12.80;71.90;;;;;;5037061;28;20471;-73
2021/12/10 10:52:30;;;;;;;21.55;3.75;;;13.10;71.90;;;;;;5034550;28;20068;-74
2021/12/10 10:55:22;;;;;;;12.82;3.53;;;13.30;73.40;;;;;;5037382;28;20048;-74
2021/12/10 10:57:58;;;;;;;17.67;3.90;;;13.60;73.00;;;;;;5024631;28;20057;-74
2021/12/10 11:00:29;;;;;;;10.38;2.38;;;14.00;71.40;;;;;;5035920;28;20029;-75
2021/12/10 11:03:03;;;;;;;17.23;6.07;;;14.30;67.90;;;;;;5037433;28;20013;-74
2021/12/10 11:05:30;;;;;;;18.45;3.03;;;14.50;66.10;;;;;;5036954;28;20030;-74
2021/12/10 11:08:00;;;;;;;13.77;3.58;;;14.50;63.60;;;;;;5035984;28;20029;-74
2021/12/10 11:10:37;;;;;;;10.98;2.33;;;14.60;64.40;;;;;;5037012;28;20034;-74
2021/12/10 11:13:18;;;;;;;14.88;3.38;;;14.70;63.70;;;;;;5019452;28;20114;-74
2021/12/10 11:16:03;;;;;;;16.58;2.63;;;14.50;62.00;;;;;;5024615;28;20025;-73
2021/12/10 11:18:41;;;;;;;12.27;2.70;;;14.00;60.60;;;;;;5036425;28;20397;-74
2021/12/10 11:21:06;;;;;;;17.27;3.05;;;13.60;62.20;;;;;;5026496;28;20565;-74
2021/12/10 11:23:33;;;;;;;16.50;2.13;;;13.20;64.70;;;;;;5035125;28;20069;-74
2021/12/10 11:25:59;;;;;;;12.23;2.50;;;12.80;65.00;;;;;;5037084;28;20033;-74
2021/12/10 11:28:35;;;;;;;11.18;2.85;;;12.60;65.40;;;;;;5036917;28;20026;-74
2021/12/10 11:31:06;;;;;;;16.70;4.00;;;12.40;65.70;;;;;;5037201;28;20021;-74
2021/12/10 11:33:35;;;;;;;17.90;2.80;;;12.20;66.00;;;;;;5032323;28;20014;-74
2021/12/10 11:36:10;;;;;;;16.30;3.47;;;12.10;68.20;;;;;;5036947;28;20026;-74
2021/12/10 11:38:37;;;;;;;10.40;2.50;;;12.10;70.00;;;;;;5037236;28;20049;-74
2021/12/10 11:41:15;;;;;;;16.80;3.20;;;11.90;68.60;;;;;;5035571;28;20030;-74
2021/12/10 11:46:31;;;;;;;19.08;3.50;;;11.80;70.90;;;;;;5036534;28;20036;-74
2021/12/10 11:49:24;;;;;;;13.68;2.72;;;11.70;71.70;;;;;;5036498;28;20112;-74
2021/12/10 11:51:58;;;;;;;10.05;2.28;;;11.30;69.00;;;;;;5038277;28;20037;-74
2021/12/10 11:54:32;;;;;;;13.93;2.10;;;11.20;71.20;;;;;;5040430;28;20025;-74
2021/12/10 11:57:18;;;;;;;13.63;2.20;;;11.00;73.10;;;;;;5040751;28;20017;-74
2021/12/10 11:59:47;;;;;;;10.27;2.60;;;10.80;73.50;;;;;;5040652;28;20032;-73
2021/12/10 12:02:18;;;;;;;16.45;2.92;;;10.60;73.60;;;;;;5040240;28;20072;-74
2021/12/10 12:04:55;;;;;;;14.10;3.17;;;10.40;73.80;;;;;;5040252;28;20020;-73
2021/12/10 12:07:38;;;;;;;10.48;1.75;;;10.20;73.80;;;;;;5040097;28;20104;-74
2021/12/10 12:10:07;;;;;;;12.10;2.60;;;10.00;74.40;;;;;;5031170;28;20077;-74
2021/12/10 12:12:40;;;;;;;13.73;1.70;;;9.80;75.00;;;;;;5032686;28;20036;-73
2021/12/10 12:15:15;;;;;;;12.45;1.83;;;9.70;74.10;;;;;;5039789;28;20025;-73
2021/12/10 12:17:45;;;;;;;11.82;2.40;;;9.60;75.60;;;;;;5039621;28;20026;-74
2021/12/10 12:20:37;;;;;;;10.32;2.45;;;9.50;76.70;;;;;;5036547;28;20034;-73
2021/12/10 12:26:15;;;;;;;11.60;3.60;;;9.40;77.80;;;;;;5040179;28;20028;-73
2021/12/10 12:28:55;;;;;;;20.30;5.55;;;9.40;79.00;;;;;;5027229;28;20080;-73
2021/12/10 12:31:29;;;;;;;16.85;6.22;;;9.40;79.20;;;;;;5039844;28;21534;-73
2021/12/10 12:34:14;;;;;;;13.27;5.30;;;9.50;79.50;;;;;;5039464;28;20088;-73
2021/12/10 12:36:57;;;;;;;16.33;4.97;;;9.50;79.70;;;;;;5039786;28;20031;-73
2021/12/10 12:39:36;;;;;;;19.90;3.55;;;9.60;80.10;;;;;;5039457;28;20412;-73
2021/12/10 12:42:05;;;;;;;13.30;2.97;;;9.70;80.20;;;;;;5039718;28;20025;-73
2021/12/10 12:44:40;;;;;;;11.45;3.05;;;9.70;80.20;;;;;;5039155;28;20025;-74
2021/12/10 12:47:32;;;;;;;20.52;4.00;;;9.80;80.40;;;;;;5039681;28;20057;-73
2021/12/10 12:50:09;;;;;;;13.97;4.33;;;9.90;80.30;;;;;;5028650;28;20029;-73
2021/12/10 12:52:39;;;;;;;8.90;2.70;;;10.00;80.10;;;;;;5039172;28;20022;-75
2021/12/10 12:55:13;;;;;;;11.98;3.03;;;10.10;80.00;;;;;;5039319;28;20030;-76
2021/12/10 12:57:54;;;;;;;13.45;3.10;;;10.10;80.70;;;;;;5039092;28;20033;-76
2021/12/10 13:00:45;;;;;;;7.38;2.90;;;10.20;79.90;;;;;;5039021;28;20499;-77
2021/12/10 13:03:17;;;;;;;13.98;3.28;;;10.20;79.20;;;;;;5037915;28;20434;-76
2021/12/10 13:05:51;;;;;;;10.10;2.90;;;10.20;78.40;;;;;;5039196;28;20017;-75
2021/12/10 13:08:21;;;;;;;11.70;3.10;;;10.20;76.70;;;;;;5038973;28;20040;-75
2021/12/10 13:11:03;;;;;;;14.75;2.90;;;10.10;75.80;;;;;;5038878;28;20018;-75
2021/12/10 13:13:39;;;;;;;16.25;3.45;;;10.10;75.90;;;;;;5021870;28;20478;-76